Flight Track Log - Related Links

Times and Time Zones

All times are in EDT time to prevent confusion due to time zone crossing. See the N589CA flight status page for this flight to view local times or setup timezone preferences in your user account.

Time Position Orientation Groundspeed Altitude Reporting Facility
EDT Latitude Longitude Course Direction KTS MPH feet Rate Location/Type
Thu 01:50:27 PM 37.3775 -83.2139 79° East 93 107 2,100  Level Indianapolis Center
Thu 01:51:00 PM 37.3921 -83.2137 83° East  Level FlightAware Approximate
Thu 01:51:29 PM 37.3917 -83.1728 67° East 104 120 2,900  Level Indianapolis Center
Thu 01:52:00 PM 37.3968 -83.1658 83° East  Level FlightAware Approximate
Thu 01:52:31 PM 37.3994 -83.1350 75° East 109 125 3,500  Level Indianapolis Center
Thu 01:53:00 PM 37.4135 -83.1223 73° East  Level Estimated
Thu 01:53:33 PM 37.4067 -83.0972 76° East 110 127 4,200  Level Indianapolis Center
Thu 01:54:00 PM 37.4302 -83.0788 90° East  Level Estimated
Thu 01:54:34 PM 37.4097 -83.0536 85° East 116 133 4,500  Level Indianapolis Center
Thu 01:55:36 PM 37.4192 -83.0117 74° East 122 140 5,200 532 Climbing Indianapolis Center
Thu 01:56:38 PM 37.4319 -82.9717 68° East 122 140 5,600 435 Climbing Indianapolis Center
Thu 01:57:40 PM 37.4411 -82.9283 75° East 124 143 6,100 484 Climbing Indianapolis Center
Thu 01:58:42 PM 37.4514 -82.8753 76° East 131 151 6,600 488 Climbing Indianapolis Center
Thu 01:59:43 PM 37.4597 -82.8314 77° East 130 150 7,100 390 Climbing Indianapolis Center
Thu 02:00:45 PM 37.4725 -82.7900 69° East 128 147 7,400 387 Climbing Indianapolis Center
Thu 02:01:47 PM 37.4931 -82.7522 56° Northeast 130 150 7,900 435 Climbing Indianapolis Center
Thu 02:02:49 PM 37.5122 -82.7119 59° Northeast 132 152 8,300 339 Climbing Indianapolis Center
Thu 02:03:51 PM 37.5317 -82.6717 59° Northeast 134 154 8,600 387 Climbing Indianapolis Center
Thu 02:04:53 PM 37.5561 -82.6275 55° Northeast 133 153 9,100 390 Climbing Indianapolis Center
Thu 02:05:54 PM 37.5781 -82.5897 54° Northeast 133 153 9,400 244 Climbing Indianapolis Center
Thu 02:06:56 PM 37.6053 -82.5631 38° Northeast 127 146 9,600 194 Climbing Indianapolis Center
Thu 02:07:58 PM 37.6364 -82.5469 22° Northeast 122 140 9,800 242 Climbing Indianapolis Center
Thu 02:09:00 PM 37.6664 -82.5256 29° Northeast 123 142 10,100 290 Climbing Indianapolis Center
Thu 02:10:02 PM 37.6742 -82.4767 79° East 134 154 10,400 244 Climbing Indianapolis Center
Thu 02:11:03 PM 37.7019 -82.4450 42° Northeast 134 154 10,600 98 Climbing Indianapolis Center
Thu 02:12:05 PM 37.7336 -82.4108 40° Northeast 130 150 10,600 -97 Level Indianapolis Center
Thu 02:13:07 PM 37.7489 -82.3644 67° East 143 165 10,400 -97 Descending Indianapolis Center
Thu 02:14:09 PM 37.7683 -82.3222 60° Northeast 141 162 10,400 146 Level Indianapolis Center
Thu 02:15:10 PM 37.7808 -82.2772 71° East 135 155 10,700 293 Climbing Indianapolis Center
Thu 02:16:12 PM 37.7961 -82.2339 66° East 136 157 11,000 145 Climbing Indianapolis Center
Thu 02:17:14 PM 37.8219 -82.2028 44° Northeast 130 150 11,000 -146 Level Indianapolis Center
Thu 02:18:15 PM 37.8383 -82.1556 66° East 136 157 10,700 -537 Descending Indianapolis Center
Thu 02:19:17 PM 37.8544 -82.1031 69° East 156 180 9,900 -968 Descending Indianapolis Center
Thu 02:20:19 PM 37.8469 -82.0567 102° East 138 159 8,700 -1,403 Descending Indianapolis Center
Thu 02:21:21 PM 37.8583 -81.9931 77° East 155 178 7,000 -823 Descending Indianapolis Center
Thu 02:22:23 PM 37.8806 -81.9500 57° Northeast 150 173 7,000  Level Indianapolis Center
Thu 02:23:24 PM 37.9097 -81.9086 48° Northeast 155 178 7,000  Level Indianapolis Center
Thu 02:24:26 PM 37.9375 -81.8644 51° Northeast 159 183 7,000  Level Indianapolis Center
Thu 02:25:28 PM 37.9592 -81.8100 63° Northeast 170 196 7,000 -97 Level Indianapolis Center
Thu 02:26:30 PM 37.9833 -81.7603 58° Northeast 167 192 6,800 -387 Descending Indianapolis Center
Thu 02:27:32 PM 38.0036 -81.7147 61° Northeast 156 180 6,200 -634 Descending Indianapolis Center
Thu 02:28:33 PM 38.0306 -81.6603 58° Northeast 152 175 5,500 -585 Descending Indianapolis Center
Thu 02:29:35 PM 38.0539 -81.6078 61° Northeast 167 192 5,000 -62 Descending Indianapolis Center
Thu 02:34:58 PM 38.1670 -81.3640 61° Northeast 145 167 5,100 17 Climbing FlightAware ADS-B
Thu 02:35:18 PM 38.1740 -81.3490 59° Northeast 148 170 5,100  Level FlightAware ADS-B
Thu 02:35:43 PM 38.1830 -81.3290 60° Northeast 146 168 5,100  Level FlightAware ADS-B
Thu 02:36:13 PM 38.1940 -81.3070 58° Northeast 142 163 5,100  Level FlightAware ADS-B
Thu 02:36:38 PM 38.2010 -81.2900 62° Northeast 144 166 5,100  Level FlightAware ADS-B
Thu 02:36:53 PM 38.2070 -81.2790 55° Northeast 145 167 5,100  Level FlightAware ADS-B
Thu 02:37:23 PM 38.2170 -81.2570 60° Northeast 146 168 5,100  Level FlightAware ADS-B
Thu 02:37:43 PM 38.2230 -81.2440 60° Northeast 144 166 5,100  Level FlightAware ADS-B
Thu 02:38:08 PM 38.2310 -81.2270 59° Northeast 144 166 5,100 -87 Level FlightAware ADS-B
Thu 02:38:52 PM 38.2453 -81.1964 59° Northeast 149 171 5,000  Descending Indianapolis Center
Thu 02:44:33 PM 38.3620 -80.9390 59° Northeast 145 167 5,100 16 Climbing FlightAware ADS-B
Thu 02:44:58 PM 38.3700 -80.9230 57° Northeast 145 167 5,100 194 Level FlightAware ADS-B
Thu 02:46:06 PM 38.3903 -80.8792 57° Northeast 144 166 5,400 277 Climbing Indianapolis Center
Thu 02:47:08 PM 38.4097 -80.8378 59° Northeast 139 160 5,700 339 Climbing Indianapolis Center
Thu 02:48:10 PM 38.4322 -80.7850 61° Northeast 141 162 6,100 339 Climbing Indianapolis Center
Thu 02:49:12 PM 38.4525 -80.7419 59° Northeast 141 162 6,400 339 Climbing Indianapolis Center
Thu 02:50:14 PM 38.4725 -80.6983 60° Northeast 142 163 6,800 242 Climbing Indianapolis Center
Thu 02:51:16 PM 38.4917 -80.6536 61° Northeast 144 166 6,900 48 Climbing Indianapolis Center
Thu 02:52:18 PM 38.5139 -80.6056 59° Northeast 150 173 6,900  Level Indianapolis Center
Thu 02:53:20 PM 38.5356 -80.5603 59° Northeast 151 174 6,900  Level Indianapolis Center
Thu 02:54:22 PM 38.5561 -80.5114 62° Northeast 155 178 6,900  Level Indianapolis Center
Thu 02:55:24 PM 38.5817 -80.4542 60° Northeast 156 180 6,900  Level Indianapolis Center
Thu 02:56:26 PM 38.6011 -80.4117 60° Northeast 152 175 6,900  Level Indianapolis Center
Thu 02:57:28 PM 38.6242 -80.3603 60° Northeast 152 175 6,900  Level Indianapolis Center
Thu 02:58:30 PM 38.6433 -80.3156 61° Northeast 147 169 6,900  Level Indianapolis Center
Thu 02:59:32 PM 38.6650 -80.2711 58° Northeast 147 169 6,900  Level Indianapolis Center
Thu 03:00:34 PM 38.6856 -80.2247 60° Northeast 148 170 6,900  Level Indianapolis Center
Thu 03:02:37 PM 38.7297 -80.1292 59° Northeast 150 173 6,900  Level Washington Center
Thu 03:03:38 PM 38.7525 -80.0772 61° Northeast 160 184 6,900  Level Washington Center
Thu 03:04:36 PM 38.7753 -80.0281 59° Northeast 155 178 6,900  Level Washington Center
Thu 03:05:37 PM 38.7981 -79.9761 61° Northeast 155 178 6,900  Level Washington Center
Thu 03:06:38 PM 38.8206 -79.9269 60° Northeast 155 178 6,900 49 Level Washington Center
Thu 03:07:39 PM 38.8414 -79.8747 63° Northeast 155 178 7,000 50 Climbing Washington Center
Thu 03:08:37 PM 38.8639 -79.8281 58° Northeast 155 178 7,000  Level Washington Center
Thu 03:09:37 PM 38.8864 -79.7814 58° Northeast 155 178 7,000  Level Washington Center
Thu 03:10:38 PM 38.9047 -79.7344 63° Northeast 155 178 7,000  Level Washington Center
Thu 03:11:37 PM 38.9250 -79.6875 61° Northeast 155 178 7,000  Level Washington Center
Thu 03:12:38 PM 38.9453 -79.6406 61° Northeast 155 178 7,000  Level Washington Center
Thu 03:13:38 PM 38.9678 -79.5886 61° Northeast 155 178 7,000  Level Washington Center
Thu 03:14:36 PM 38.9928 -79.5311 61° Northeast 167 192 7,000  Level Washington Center
Thu 03:15:37 PM 39.0131 -79.4842 61° Northeast 162 186 7,000  Level Washington Center
Thu 03:16:37 PM 39.0356 -79.4344 60° Northeast 156 180 7,000  Level Washington Center
Thu 03:17:38 PM 39.0597 -79.3903 55° Northeast 151 174 7,000  Level Washington Center
Thu 03:18:36 PM 39.0803 -79.3378 63° Northeast 151 174 7,000  Level Washington Center
Thu 03:19:38 PM 39.1025 -79.2883 60° Northeast 156 180 7,000  Level Washington Center
Thu 03:20:38 PM 39.1208 -79.2383 65° Northeast 156 180 7,000  Level Washington Center
Thu 03:21:36 PM 39.1411 -79.1883 62° Northeast 156 180 7,000  Level Washington Center
Thu 03:22:36 PM 39.1614 -79.1386 62° Northeast 156 180 7,000  Level Washington Center
Thu 03:23:37 PM 39.1817 -79.0886 62° Northeast 156 180 7,000  Level Washington Center
Thu 03:24:37 PM 39.2036 -79.0417 59° Northeast 156 180 7,000  Level Washington Center
Thu 03:25:38 PM 39.2239 -78.9917 62° Northeast 156 180 7,000  Level Washington Center
Thu 03:26:38 PM 39.2336 -78.9383 77° East 151 174 7,000  Level Washington Center
Thu 03:27:36 PM 39.2414 -78.8853 79° East 146 168 7,000  Level Washington Center
Thu 03:28:37 PM 39.2492 -78.8292 80° East 146 168 7,000  Level Washington Center
Thu 03:29:38 PM 39.2569 -78.7733 80° East 146 168 7,000  Level Washington Center
Thu 03:30:36 PM 39.2647 -78.7175 80° East 146 168 7,000  Level Washington Center
Thu 03:31:37 PM 39.2725 -78.6614 80° East 151 174 7,000  Level Washington Center
Thu 03:32:37 PM 39.2822 -78.6056 77° East 151 174 7,000  Level Washington Center
Thu 03:33:37 PM 39.2897 -78.5522 80° East 156 180 7,000  Level Washington Center
Thu 03:34:38 PM 39.2953 -78.4933 83° East 156 180 7,000  Level Washington Center
Thu 03:35:36 PM 39.3008 -78.4372 83° East 161 185 7,000  Level Washington Center
Thu 03:36:37 PM 39.3003 -78.3756 91° East 161 185 7,000  Level Washington Center
Thu 03:37:38 PM 39.2975 -78.3164 93° East 161 185 7,000 -318 Level Washington Center
Thu 03:43:13 PM 39.3480 -78.0470 93° East 150 173 4,900 -383 Descending FlightAware ADS-B
Thu 03:43:38 PM 39.3530 -78.0250 74° East 148 170 4,700 -450 Descending FlightAware ADS-B
Thu 03:43:53 PM 39.3550 -78.0130 78° East 147 169 4,600 -600 Descending FlightAware ADS-B
Thu 03:44:18 PM 39.3590 -77.9900 77° East 147 169 4,300 -545 Descending FlightAware ADS-B
Thu 03:44:48 PM 39.3640 -77.9660 75° East 147 169 4,100 -200 Descending FlightAware ADS-B
Thu 03:45:18 PM 39.3700 -77.9330 77° East 144 166 4,100  Level FlightAware ADS-B
Thu 03:45:43 PM 39.3750 -77.9060 77° East 144 166 4,100  Level FlightAware ADS-B
Thu 03:46:13 PM 39.3800 -77.8800 76° East 150 173 4,100  Level FlightAware ADS-B
Thu 03:46:28 PM 39.3820 -77.8680 78° East 152 175 4,100  Level FlightAware ADS-B
Thu 03:46:53 PM 39.3860 -77.8430 78° East 150 173 4,100  Level FlightAware ADS-B
Thu 03:47:23 PM 39.3880 -77.8170 84° East 153 176 4,100  Level FlightAware ADS-B
Thu 03:47:38 PM 39.3890 -77.8050 84° East 153 176 4,100  Level FlightAware ADS-B
Thu 03:48:03 PM 39.3910 -77.7850 83° East 155 178 4,100  Level FlightAware ADS-B
Thu 03:48:18 PM 39.3970 -77.7780 42° Northeast 156 180 4,100  Level FlightAware ADS-B
Thu 03:48:28 PM 39.4040 -77.7760 12° North 153 176 4,100  Level FlightAware ADS-B
Thu 03:48:53 PM 39.4190 -77.7730 North 153 176 4,100  Level FlightAware ADS-B
Thu 03:49:33 PM 39.4570 -77.7840 347° North 153 176 4,100  Level FlightAware ADS-B
Thu 03:49:58 PM 39.4740 -77.7860 355° North 154 177 4,100  Level FlightAware ADS-B
Thu 03:50:28 PM 39.4930 -77.7890 353° North 154 177 4,100  Level FlightAware ADS-B
Thu 03:50:53 PM 39.5130 -77.7920 353° North 155 178 4,100  Level FlightAware ADS-B
Thu 03:51:23 PM 39.5270 -77.7720 48° Northeast 149 171 4,100  Level FlightAware ADS-B
Thu 03:51:48 PM 39.5250 -77.7460 96° East 151 174 4,100  Level FlightAware ADS-B
Thu 03:52:18 PM 39.5230 -77.7230 96° East 148 170 4,100  Level FlightAware ADS-B
Thu 03:52:33 PM 39.5210 -77.7110 102° East 149 171 4,100  Level FlightAware ADS-B
Thu 03:52:58 PM 39.5190 -77.6840 95° East 152 175 4,100 -218 Level FlightAware ADS-B
Thu 03:53:28 PM 39.5170 -77.6620 97° East 160 184 3,900 -400 Descending FlightAware ADS-B
Thu 03:53:43 PM 39.5170 -77.6540 90° East 157 181 3,800 -450 Descending FlightAware ADS-B
Thu 03:54:08 PM 39.5140 -77.6280 98° East 151 174 3,600 -533 Descending FlightAware ADS-B
Thu 03:54:28 PM 39.5110 -77.6080 101° East 147 169 3,400 -581 Descending FlightAware ADS-B
Thu 03:55:10 PM 39.4833 -77.5500 101° East 140 161 3,000 -294 Descending Potomac TRACON
Thu 03:56:10 PM 39.4833 -77.5000 90° East 147 169 2,900 -347 Descending Potomac TRACON
Thu 03:57:11 PM 39.4833 -77.4500 90° East 148 170 2,300 -590 Descending Potomac TRACON

Login

Don't have an account? Register now (free) for customized features, flight alerts, and more!